LDZA

Zagreb Airport

Airport
ICAO code
LDZA
IATA Code
ZAG
Summary
ICAO Region
EUR
ICAO Territory
Location

Velika Gorica, Zagreb

Serving
Zagreb
Elevation
353 ft
Coordinates
45° 44' 34" N , 16° 4' 8" E
KCC
Cfb
Metar
Observation
LDZA 081400Z 06010KT 010V100 CAVOK 28/13 Q1018 NOSIG
Station
Zagreb / Pleso
Date/Time
2022-08-08 14:00:00
Wind direction
60°
Wind speed
10 kts
Lowest cloud amount
clouds and visibility OK
Temperature
28°C
Dew point
13°C
Humidity
39%
QNH
1018 hPa
Weather condition
n/a

Description

International airport serving capital of Croatia.

Climatology

Temperate Marine climate/Oceanic climate (Köppen climate classification Cfb).

Runways

Designator Length Width Surface Rops
5/23 3252 45 ASP Yes/Yes

Airport map

Aerial View

SKYbrary Partners:

Safety knowledge contributed by: